createdAt,value
2022-11-13T00:00:19.835Z,21.4
2022-11-13T00:05:42.847Z,21.3
2022-11-13T00:16:34.961Z,21.1
2022-11-13T00:22:13.778Z,21.1
2022-11-13T00:27:20.680Z,21.1
2022-11-13T00:32:49.380Z,21.4
2022-11-13T00:39:18.133Z,21.3
2022-11-13T00:44:46.077Z,21.1
2022-11-13T00:50:08.278Z,20.9
2022-11-13T00:55:16.415Z,20.9
2022-11-13T01:00:23.264Z,20.8
2022-11-13T01:05:46.529Z,20.8
2022-11-13T01:11:11.091Z,20.8
2022-11-13T01:16:17.745Z,20.8
2022-11-13T01:21:39.848Z,20.8
2022-11-13T01:26:47.395Z,20.9
2022-11-13T01:32:10.365Z,20.8
2022-11-13T01:37:48.031Z,20.8
2022-11-13T01:43:10.501Z,20.8
2022-11-13T01:48:33.060Z,20.8
2022-11-13T01:53:55.106Z,20.8
2022-11-13T01:59:33.629Z,20.8
2022-11-13T02:05:11.990Z,20.8
2022-11-13T02:10:50.456Z,20.7
2022-11-13T02:16:13.618Z,20.8
2022-11-13T02:21:51.285Z,20.8
2022-11-13T02:27:31.475Z,20.7
2022-11-13T02:32:58.717Z,20.8
2022-11-13T02:37:50.208Z,20.8
2022-11-13T02:43:11.486Z,20.7
2022-11-13T02:48:33.598Z,20.7
2022-11-13T02:54:15.665Z,20.7
2022-11-13T02:59:55.858Z,20.6
2022-11-13T03:06:22.129Z,20.6
2022-11-13T03:11:44.753Z,20.6
2022-11-13T03:17:06.808Z,20.6
2022-11-13T03:22:29.490Z,20.6
2022-11-13T03:27:57.331Z,20.6
2022-11-13T03:32:48.627Z,20.5
2022-11-13T03:38:17.035Z,20.5
2022-11-13T03:43:54.763Z,20.5
2022-11-13T03:49:32.591Z,20.5
2022-11-13T03:55:16.656Z,20.5
2022-11-13T04:01:00.343Z,20.4
2022-11-13T04:06:40.849Z,20.4
2022-11-13T04:12:03.351Z,20.4
2022-11-13T04:17:41.669Z,20.4
2022-11-13T04:23:18.512Z,20.4
2022-11-13T04:28:56.135Z,20.3
2022-11-13T04:34:34.041Z,20.3
2022-11-13T04:40:11.757Z,20.3
2022-11-13T04:45:36.673Z,20.2
2022-11-13T04:51:15.436Z,20.2
2022-11-13T04:56:58.002Z,20.2
2022-11-13T05:02:36.240Z,20.1
2022-11-13T05:07:58.793Z,20.1
2022-11-13T05:13:21.242Z,20.1
2022-11-13T05:19:00.983Z,20.1
2022-11-13T05:24:39.615Z,19.8
2022-11-13T05:30:20.866Z,19.7
2022-11-13T05:36:01.604Z,19.7
2022-11-13T05:41:24.540Z,19.8
2022-11-13T05:47:03.288Z,19.8
2022-11-13T05:52:41.371Z,19.8
2022-11-13T05:58:19.785Z,19.7
2022-11-13T06:03:58.002Z,19.6
2022-11-13T06:09:37.824Z,19.6
2022-11-13T06:15:16.098Z,19.6
2022-11-13T06:20:56.130Z,19.6
2022-11-13T06:26:18.594Z,19.6
2022-11-13T06:31:57.260Z,19.6
2022-11-13T06:37:36.201Z,19.6
2022-11-13T06:42:59.678Z,19.6
2022-11-13T06:48:22.950Z,19.5
2022-11-13T06:53:51.459Z,19.5
2022-11-13T06:59:14.631Z,19.4
2022-11-13T07:04:38.926Z,19.4
2022-11-13T07:10:02.562Z,19.4
2022-11-13T07:15:40.768Z,19.4
2022-11-13T07:21:41.915Z,19.4
2022-11-13T07:27:20.652Z,19.3
2022-11-13T07:32:49.425Z,19.3
2022-11-13T07:38:27.636Z,19.3
2022-11-13T07:43:34.076Z,19.3
2022-11-13T07:49:24.554Z,19.2
2022-11-13T07:54:55.597Z,19.2
2022-11-13T08:00:06.343Z,19.2
2022-11-13T08:05:30.359Z,19.2
2022-11-13T08:10:55.199Z,19.1
2022-11-13T08:15:47.618Z,19.1
2022-11-13T08:20:55.865Z,19.1
2022-11-13T08:26:06.126Z,19.1
2022-11-13T08:31:17.905Z,19.1
2022-11-13T08:36:59.624Z,19.1
2022-11-13T08:42:37.365Z,19.1
2022-11-13T08:48:19.938Z,19.1
2022-11-13T08:53:43.305Z,19.1
2022-11-13T08:59:26.502Z,19
2022-11-13T09:05:04.221Z,19.1
2022-11-13T09:10:47.320Z,19
2022-11-13T09:16:31.921Z,19
2022-11-13T09:22:03.179Z,19
2022-11-13T09:27:31.985Z,19
2022-11-13T09:32:59.155Z,19
2022-11-13T09:38:28.368Z,19
2022-11-13T09:43:55.292Z,18.9
2022-11-13T09:49:06.083Z,19
2022-11-13T09:54:33.427Z,18.9
2022-11-13T10:00:12.668Z,18.9
2022-11-13T10:06:10.779Z,18.9
2022-11-13T10:11:49.344Z,18.9
2022-11-13T10:17:28.339Z,18.9
2022-11-13T10:23:21.525Z,18.9
2022-11-13T10:28:43.534Z,18.9
2022-11-13T10:34:16.998Z,18.9
2022-11-13T10:39:46.625Z,18.9
2022-11-13T10:45:29.632Z,18.9
2022-11-13T10:51:24.188Z,18.9
2022-11-13T10:56:31.138Z,18.9
2022-11-13T11:02:12.614Z,18.9
2022-11-13T11:08:11.078Z,18.9
2022-11-13T11:13:54.527Z,18.9
2022-11-13T11:19:32.931Z,18.9
2022-11-13T11:25:13.937Z,18.9
2022-11-13T11:30:51.660Z,18.9
2022-11-13T11:36:29.252Z,18.9
2022-11-13T11:41:52.201Z,18.9
2022-11-13T11:47:37.076Z,18.9
2022-11-13T11:52:59.279Z,18.8
2022-11-13T11:58:38.028Z,18.9
2022-11-13T12:04:15.856Z,18.9
2022-11-13T12:09:39.415Z,18.9
2022-11-13T12:15:01.990Z,18.9
2022-11-13T12:20:40.790Z,18.9
2022-11-13T12:26:18.472Z,18.9
2022-11-13T12:32:01.035Z,18.8
2022-11-13T12:37:42.922Z,18.9
2022-11-13T12:43:23.545Z,18.8
2022-11-13T12:48:47.228Z,18.8
2022-11-13T12:54:15.179Z,18.8
2022-11-13T12:59:57.843Z,18.8
2022-11-13T13:05:37.045Z,18.9
2022-11-13T13:11:15.553Z,18.9
2022-11-13T13:16:43.004Z,18.9
2022-11-13T13:21:35.835Z,18.9
2022-11-13T13:26:42.754Z,18.8
2022-11-13T13:32:08.693Z,18.8
2022-11-13T13:37:21.008Z,18.8
2022-11-13T13:42:34.876Z,18.8
2022-11-13T13:48:13.222Z,18.8
2022-11-13T13:53:28.202Z,18.8
2022-11-13T13:58:56.157Z,18.8
2022-11-13T14:04:41.246Z,18.8
2022-11-13T14:10:20.098Z,18.8
2022-11-13T14:15:58.412Z,18.8
2022-11-13T14:21:36.319Z,18.8
2022-11-13T14:26:59.510Z,18.8
2022-11-13T14:32:39.361Z,18.8
2022-11-13T14:38:19.785Z,18.8
2022-11-13T14:43:58.358Z,18.8
2022-11-13T14:49:38.170Z,18.8
2022-11-13T15:20:44.741Z,18.6
2022-11-13T15:26:43.265Z,18.6
2022-11-13T15:31:51.176Z,18.6
2022-11-13T15:36:58.205Z,18.6
2022-11-13T15:42:12.263Z,18.5
2022-11-13T15:47:41.588Z,19.5
2022-11-13T15:53:39.774Z,20.7
2022-11-13T15:59:07.463Z,21.3
2022-11-13T16:04:50.712Z,21.9
2022-11-13T16:10:17.733Z,22.3
2022-11-13T16:15:47.109Z,22.5
2022-11-13T16:21:14.315Z,22.9
2022-11-13T16:26:53.770Z,23.1
2022-11-13T16:32:47.974Z,23.9
2022-11-13T16:38:10.471Z,24.8
2022-11-13T16:43:54.266Z,25.9
2022-11-13T16:49:33.606Z,26.2
2022-11-13T16:55:11.912Z,28
2022-11-13T17:00:35.482Z,29.1
2022-11-13T17:06:21.199Z,29.4
2022-11-13T17:12:29.374Z,29.9
2022-11-13T17:17:52.072Z,30.1
2022-11-13T17:23:30.883Z,29.3
2022-11-13T17:29:09.091Z,27.3
2022-11-13T17:34:31.898Z,27.1
2022-11-13T17:40:11.766Z,26.3
2022-11-13T17:45:40.855Z,26.8
2022-11-13T17:50:54.511Z,27.4
2022-11-13T17:56:33.622Z,28.2
2022-11-13T18:02:14.754Z,28.1
2022-11-13T18:07:26.081Z,28.1
2022-11-13T18:12:49.759Z,28.1
2022-11-13T18:18:29.148Z,28.3
2022-11-13T18:24:27.146Z,29.3
2022-11-13T18:30:10.483Z,30.1
2022-11-13T18:35:48.957Z,29.9
2022-11-13T18:41:29.656Z,29.6
2022-11-13T18:47:09.232Z,28.4
2022-11-13T18:58:10.368Z,27
2022-11-13T19:04:16.503Z,27.9
2022-11-13T19:10:03.767Z,28.6
2022-11-13T19:15:26.876Z,27.4
2022-11-13T19:21:10.294Z,28.6
2022-11-13T19:26:50.731Z,28.5
2022-11-13T19:32:13.347Z,27.1
2022-11-13T19:37:53.149Z,26.7
2022-11-13T19:43:32.816Z,26.3
2022-11-13T19:49:10.374Z,26.4
2022-11-13T19:54:33.595Z,26.3
2022-11-13T19:59:59.744Z,25.9
2022-11-13T20:05:23.165Z,25.5
2022-11-13T20:10:46.627Z,25.1
2022-11-13T20:16:08.498Z,24.8
2022-11-13T20:21:47.387Z,24.6
2022-11-13T20:27:10.279Z,24.4
2022-11-13T20:32:52.373Z,23.9
2022-11-13T20:38:31.017Z,23.9
2022-11-13T20:44:13.992Z,24.6
2022-11-13T20:49:52.630Z,26.8
2022-11-13T20:55:18.715Z,27.8
2022-11-13T21:01:01.618Z,28.4
2022-11-13T21:06:44.313Z,27.3
2022-11-13T21:12:22.262Z,27.1
2022-11-13T21:18:00.635Z,26.9
2022-11-13T21:23:39.466Z,26.8
2022-11-13T21:29:22.955Z,26.3
2022-11-13T21:35:02.192Z,25.8
2022-11-13T21:40:45.140Z,25.8
2022-11-13T21:46:22.747Z,25.5
2022-11-13T21:52:00.736Z,25.3
2022-11-13T21:57:39.508Z,25.3
2022-11-13T22:03:20.472Z,25.1
2022-11-13T22:08:58.774Z,24.9
2022-11-13T22:14:38.965Z,24.7
2022-11-13T22:20:20.652Z,24.6
2022-11-13T22:25:58.757Z,24.3
2022-11-13T22:31:37.141Z,24.1
2022-11-13T22:37:14.892Z,23.8
2022-11-13T22:42:52.608Z,23.7
2022-11-13T22:49:05.498Z,23.4
2022-11-13T22:54:43.679Z,23.3
2022-11-13T23:00:21.607Z,23.3
2022-11-13T23:05:35.021Z,23.1
2022-11-13T23:11:14.614Z,23
2022-11-13T23:16:21.953Z,22.9
2022-11-13T23:22:05.648Z,22.8
2022-11-13T23:27:44.031Z,22.8
2022-11-13T23:33:10.601Z,22.6
2022-11-13T23:39:14.091Z,22.4
2022-11-13T23:45:32.888Z,22.2
2022-11-13T23:51:11.128Z,22.1
2022-11-13T23:56:49.123Z,22.1
